Time;durP1;ratioP1;P1;durP2;ratioP2;P2;SDS_P1;SDS_P2;PMS_P1;PMS_P2;Temp;Humidity;BMP_temperature;BMP_pressure;BME280_temperature;BME280_humidity;BME280_pressure;Samples;Min_cycle;Max_cycle;Signal;HPM_P1;HPM_P2
2021/09/29 00:00:23;;;;;;;13.95;8.90;;;10.80;99.90;;;;;;5051008;28;20163;-63
2021/09/29 00:02:49;;;;;;;12.52;9.35;;;10.80;99.90;;;;;;5051861;28;20379;-64
2021/09/29 00:05:15;;;;;;;20.67;9.10;;;10.80;99.90;;;;;;5049557;28;20434;-63
2021/09/29 00:07:40;;;;;;;13.45;8.65;;;10.80;99.90;;;;;;5051894;28;20111;-63
2021/09/29 00:10:07;;;;;;;15.30;8.77;;;10.70;99.90;;;;;;5049765;28;20045;-63
2021/09/29 00:12:33;;;;;;;17.73;8.68;;;10.70;99.90;;;;;;5050625;28;20458;-63
2021/09/29 00:14:58;;;;;;;13.15;8.20;;;10.70;99.90;;;;;;5049682;28;20044;-63
2021/09/29 00:17:24;;;;;;;10.68;8.18;;;10.70;99.90;;;;;;5050205;28;20039;-63
2021/09/29 00:19:49;;;;;;;14.65;8.38;;;10.70;99.90;;;;;;5042859;28;20150;-63
2021/09/29 00:22:15;;;;;;;13.88;8.55;;;10.70;99.90;;;;;;5048285;28;20103;-63
2021/09/29 00:24:40;;;;;;;16.45;8.73;;;10.60;99.90;;;;;;5047090;28;20045;-63
2021/09/29 00:27:06;;;;;;;15.02;8.38;;;10.70;99.90;;;;;;5051136;28;20370;-63
2021/09/29 00:29:32;;;;;;;10.50;7.65;;;10.60;99.90;;;;;;5048726;28;20092;-64
2021/09/29 00:31:59;;;;;;;12.60;9.25;;;10.60;99.90;;;;;;5050095;28;20536;-63
2021/09/29 00:34:36;;;;;;;12.32;7.80;;;10.60;99.90;;;;;;5050086;28;20045;-63
2021/09/29 00:37:03;;;;;;;10.75;8.23;;;10.50;99.90;;;;;;5033319;28;20056;-63
2021/09/29 00:39:28;;;;;;;10.23;8.02;;;10.50;99.90;;;;;;5050686;28;20098;-63
2021/09/29 00:41:54;;;;;;;13.55;7.85;;;10.50;99.90;;;;;;5047649;28;20045;-63
2021/09/29 00:44:20;;;;;;;14.93;7.85;;;10.50;99.90;;;;;;5048523;28;20072;-63
2021/09/29 00:46:46;;;;;;;12.73;7.85;;;10.40;99.90;;;;;;5049639;28;20076;-63
2021/09/29 00:49:12;;;;;;;10.43;7.68;;;10.40;99.90;;;;;;5042268;28;20069;-63
2021/09/29 00:51:38;;;;;;;11.68;7.68;;;10.40;99.90;;;;;;5048894;28;20079;-63
2021/09/29 00:54:04;;;;;;;13.90;8.45;;;10.40;99.90;;;;;;5032084;28;20518;-63
2021/09/29 00:56:30;;;;;;;14.20;8.30;;;10.40;99.90;;;;;;5051207;28;20382;-63
2021/09/29 00:58:56;;;;;;;11.32;8.38;;;10.40;99.90;;;;;;5049299;28;20037;-63
2021/09/29 01:01:22;;;;;;;13.77;8.02;;;10.40;99.90;;;;;;5042833;28;20081;-63
2021/09/29 01:03:48;;;;;;;10.48;8.02;;;10.40;99.90;;;;;;5045253;28;20037;-63
2021/09/29 01:06:32;;;;;;;16.10;8.43;;;10.40;99.90;;;;;;5049804;28;20037;-63
2021/09/29 01:09:05;;;;;;;16.52;8.07;;;10.40;99.90;;;;;;5048591;28;20045;-63
2021/09/29 01:11:45;;;;;;;16.73;8.55;;;10.40;99.90;;;;;;5048465;28;20041;-63
2021/09/29 01:14:20;;;;;;;14.60;8.88;;;10.40;99.90;;;;;;5042805;28;20045;-63
2021/09/29 01:16:48;;;;;;;14.80;8.18;;;10.50;99.90;;;;;;5042963;28;20036;-63
2021/09/29 01:19:55;;;;;;;11.40;8.20;;;10.50;99.90;;;;;;5046363;28;20083;-63
2021/09/29 01:22:39;;;;;;;17.50;8.80;;;10.50;99.90;;;;;;5048741;28;20053;-63
2021/09/29 01:25:12;;;;;;;10.02;8.27;;;10.50;99.90;;;;;;5048125;28;20052;-63
2021/09/29 01:27:40;;;;;;;9.70;7.65;;;10.50;99.90;;;;;;5047846;28;20052;-63
2021/09/29 01:30:06;;;;;;;9.48;7.30;;;10.50;99.90;;;;;;5041768;28;20063;-63
2021/09/29 01:32:32;;;;;;;12.25;8.18;;;10.50;99.90;;;;;;5049797;28;20048;-63
2021/09/29 01:34:58;;;;;;;11.57;7.78;;;10.50;99.90;;;;;;5047518;28;20028;-63
2021/09/29 01:37:24;;;;;;;12.98;7.57;;;10.50;99.90;;;;;;5048840;28;20065;-63
2021/09/29 01:39:50;;;;;;;12.77;7.15;;;10.50;99.90;;;;;;5049052;28;20483;-63
2021/09/29 01:42:16;;;;;;;10.35;7.30;;;10.50;99.90;;;;;;5051880;28;20095;-62
2021/09/29 01:44:41;;;;;;;9.73;7.03;;;10.50;99.90;;;;;;5053136;28;20036;-63
2021/09/29 01:47:09;;;;;;;11.25;7.20;;;10.50;99.90;;;;;;5053287;28;20391;-63
2021/09/29 01:49:40;;;;;;;10.23;7.05;;;10.50;99.90;;;;;;5051542;28;20537;-63
2021/09/29 01:52:08;;;;;;;12.70;7.43;;;10.50;99.90;;;;;;5051372;28;20059;-63
2021/09/29 01:54:39;;;;;;;11.82;7.20;;;10.60;99.90;;;;;;5051971;28;20099;-63
2021/09/29 01:57:05;;;;;;;11.38;7.38;;;10.60;99.90;;;;;;5052922;28;20470;-63
2021/09/29 01:59:31;;;;;;;11.77;7.18;;;10.60;99.90;;;;;;5048142;28;20047;-63
2021/09/29 02:01:57;;;;;;;11.20;7.40;;;10.60;99.90;;;;;;5052676;28;20088;-63
2021/09/29 02:04:22;;;;;;;10.98;7.18;;;10.60;99.90;;;;;;5047025;28;20029;-63
2021/09/29 02:06:50;;;;;;;14.52;7.22;;;10.60;99.90;;;;;;5051820;28;20087;-63
2021/09/29 02:09:17;;;;;;;12.55;7.72;;;10.60;99.90;;;;;;5041198;28;20383;-63
2021/09/29 02:11:44;;;;;;;17.00;7.18;;;10.70;99.90;;;;;;5054046;28;20473;-63
2021/09/29 02:14:10;;;;;;;10.63;7.13;;;10.70;99.90;;;;;;5048159;28;20044;-63
2021/09/29 02:16:36;;;;;;;11.20;7.18;;;10.70;99.90;;;;;;5054130;28;20036;-63
2021/09/29 02:19:02;;;;;;;16.70;7.28;;;10.70;99.90;;;;;;5045522;28;20090;-63
2021/09/29 02:21:27;;;;;;;14.45;7.32;;;10.70;99.90;;;;;;5053001;28;20029;-63
2021/09/29 02:23:53;;;;;;;14.10;7.60;;;10.70;99.90;;;;;;5049803;28;20025;-63
2021/09/29 02:26:19;;;;;;;10.90;7.28;;;10.70;99.90;;;;;;5051843;28;20041;-63
2021/09/29 02:28:45;;;;;;;9.10;7.45;;;10.70;99.90;;;;;;5051132;28;20178;-63
2021/09/29 02:31:11;;;;;;;14.48;7.32;;;10.70;99.90;;;;;;5051682;28;20095;-62
2021/09/29 02:33:36;;;;;;;12.80;7.13;;;10.70;99.90;;;;;;5049970;28;20485;-63
2021/09/29 02:36:02;;;;;;;11.80;7.60;;;10.70;99.90;;;;;;5050627;28;20382;-63
2021/09/29 02:38:28;;;;;;;12.52;7.55;;;10.60;99.90;;;;;;5051267;28;20051;-63
2021/09/29 02:40:53;;;;;;;10.52;7.18;;;10.70;99.90;;;;;;5050806;28;20112;-63
2021/09/29 02:43:19;;;;;;;9.35;7.20;;;10.70;99.90;;;;;;5051866;28;20045;-63
2021/09/29 02:45:45;;;;;;;9.38;7.18;;;10.70;99.90;;;;;;5052563;28;20029;-63
2021/09/29 02:48:12;;;;;;;10.65;6.97;;;10.60;99.90;;;;;;5048090;28;20075;-63
2021/09/29 02:50:38;;;;;;;9.27;7.43;;;10.60;99.90;;;;;;5036893;28;20032;-63
2021/09/29 02:53:04;;;;;;;12.82;7.35;;;10.60;99.90;;;;;;5046850;28;20041;-63
2021/09/29 02:55:29;;;;;;;11.32;7.30;;;10.60;99.90;;;;;;5050655;28;20040;-63
2021/09/29 02:57:55;;;;;;;12.50;7.65;;;10.60;99.90;;;;;;5049984;28;20076;-63
2021/09/29 03:00:20;;;;;;;10.32;7.20;;;10.70;99.90;;;;;;5052450;28;20131;-63
2021/09/29 03:02:46;;;;;;;11.15;7.75;;;10.60;99.90;;;;;;5051706;28;20041;-63
2021/09/29 03:05:12;;;;;;;11.02;6.90;;;10.60;99.90;;;;;;5046872;28;20037;-63
2021/09/29 03:07:37;;;;;;;13.18;7.40;;;10.60;99.90;;;;;;5066948;22;20064;-63
2021/09/29 03:10:04;;;;;;;12.02;7.68;;;10.60;99.90;;;;;;5051218;28;20175;-63
2021/09/29 03:12:29;;;;;;;12.40;7.70;;;10.50;99.90;;;;;;5039342;28;20432;-63
2021/09/29 03:14:55;;;;;;;13.48;8.45;;;10.60;99.90;;;;;;5050847;28;20094;-63
2021/09/29 03:17:21;;;;;;;10.27;8.07;;;10.50;99.90;;;;;;5032363;28;20075;-63
2021/09/29 03:19:46;;;;;;;11.50;8.07;;;10.50;99.90;;;;;;5065159;28;20036;-63
2021/09/29 03:22:12;;;;;;;12.18;8.02;;;10.60;99.90;;;;;;5064295;28;20087;-63
2021/09/29 03:24:37;;;;;;;10.43;7.70;;;10.50;99.90;;;;;;5050430;28;20406;-63
2021/09/29 03:27:03;;;;;;;13.75;8.52;;;10.50;99.90;;;;;;5046513;28;20059;-63
2021/09/29 03:29:29;;;;;;;13.25;7.60;;;10.50;99.90;;;;;;5056471;28;20041;-63
2021/09/29 03:31:55;;;;;;;13.85;9.23;;;10.50;99.90;;;;;;5051394;28;20127;-63
2021/09/29 03:34:20;;;;;;;12.70;8.43;;;10.50;99.90;;;;;;5059819;28;20447;-63
2021/09/29 03:36:46;;;;;;;12.43;8.70;;;10.50;99.90;;;;;;5039812;28;20052;-62
2021/09/29 03:39:11;;;;;;;13.35;8.73;;;10.50;99.90;;;;;;5050249;28;20099;-63
2021/09/29 03:41:37;;;;;;;11.63;9.23;;;10.50;99.90;;;;;;5053454;28;20043;-63
2021/09/29 03:44:02;;;;;;;17.23;8.70;;;10.50;99.90;;;;;;5055126;28;20421;-63
2021/09/29 03:46:28;;;;;;;12.80;8.07;;;10.50;99.90;;;;;;5059059;28;20037;-63
2021/09/29 03:48:54;;;;;;;12.35;8.48;;;10.50;99.90;;;;;;5041214;28;20084;-63
2021/09/29 03:51:19;;;;;;;15.35;9.20;;;10.50;99.90;;;;;;5040995;28;20460;-62
2021/09/29 03:53:45;;;;;;;14.32;8.93;;;10.50;99.90;;;;;;5062390;28;20437;-63
2021/09/29 03:56:11;;;;;;;11.50;8.25;;;10.50;99.90;;;;;;5057964;28;20043;-63
2021/09/29 03:58:36;;;;;;;12.57;7.68;;;10.50;99.90;;;;;;5058843;28;20036;-63
2021/09/29 04:01:02;;;;;;;14.68;8.18;;;10.50;99.90;;;;;;5034179;28;20080;-62
2021/09/29 04:03:27;;;;;;;14.40;8.32;;;10.50;99.90;;;;;;5052232;28;20072;-63
2021/09/29 04:05:53;;;;;;;12.13;8.45;;;10.50;99.90;;;;;;5039063;28;20083;-63
2021/09/29 04:08:18;;;;;;;13.48;8.93;;;10.50;99.90;;;;;;5055336;28;20052;-63
2021/09/29 04:10:44;;;;;;;10.40;7.95;;;10.50;99.90;;;;;;5046731;28;20470;-63
2021/09/29 04:13:10;;;;;;;13.43;8.23;;;10.50;99.90;;;;;;5050423;28;20037;-63
2021/09/29 04:15:35;;;;;;;14.70;8.25;;;10.50;99.90;;;;;;5031825;28;20033;-63
2021/09/29 04:18:02;;;;;;;14.23;7.97;;;10.50;99.90;;;;;;5049581;28;20159;-63
2021/09/29 04:20:28;;;;;;;11.95;8.07;;;10.50;99.90;;;;;;5048528;28;20045;-63
2021/09/29 04:22:54;;;;;;;12.65;8.27;;;10.50;99.90;;;;;;5062836;28;20042;-63
2021/09/29 04:25:20;;;;;;;14.23;8.35;;;10.60;99.90;;;;;;5064322;28;20139;-63
2021/09/29 04:27:46;;;;;;;16.05;7.47;;;10.60;99.90;;;;;;5045961;28;20368;-63
2021/09/29 04:30:15;;;;;;;13.70;7.97;;;10.60;99.90;;;;;;5062778;28;20116;-62
2021/09/29 04:32:42;;;;;;;12.15;7.88;;;10.60;99.90;;;;;;5047363;28;20495;-63
2021/09/29 04:35:08;;;;;;;12.38;7.55;;;10.60;99.90;;;;;;5058377;28;20405;-63
2021/09/29 04:37:34;;;;;;;9.55;7.65;;;10.60;99.90;;;;;;5054502;28;20439;-63
2021/09/29 04:40:00;;;;;;;14.02;8.25;;;10.60;99.90;;;;;;5056675;28;20307;-63
2021/09/29 04:42:25;;;;;;;11.80;7.45;;;10.60;99.90;;;;;;5053293;28;20040;-62
2021/09/29 04:44:51;;;;;;;14.63;8.90;;;10.60;99.90;;;;;;5054700;28;20353;-63
2021/09/29 04:47:17;;;;;;;11.50;8.40;;;10.50;99.90;;;;;;5058411;28;20101;-63
2021/09/29 04:49:42;;;;;;;12.43;8.38;;;10.60;99.90;;;;;;5062870;28;20033;-63
2021/09/29 04:52:08;;;;;;;11.80;7.43;;;10.60;99.90;;;;;;5041995;28;20036;-63
2021/09/29 04:54:34;;;;;;;12.73;7.78;;;10.50;99.90;;;;;;5050535;28;20052;-63
2021/09/29 04:57:00;;;;;;;15.27;8.45;;;10.50;99.90;;;;;;5035842;28;20090;-63
2021/09/29 04:59:25;;;;;;;11.65;7.80;;;10.50;99.90;;;;;;5049913;28;20033;-63
2021/09/29 05:01:53;;;;;;;13.23;8.20;;;10.50;99.90;;;;;;5032187;28;20496;-63
2021/09/29 05:04:23;;;;;;;15.93;8.82;;;10.40;99.90;;;;;;5049947;28;20053;-63
2021/09/29 05:06:49;;;;;;;14.20;8.52;;;10.40;99.90;;;;;;5049713;28;20052;-63
2021/09/29 05:09:15;;;;;;;12.52;8.00;;;10.40;99.90;;;;;;5042128;28;20044;-63
2021/09/29 05:11:46;;;;;;;17.02;8.18;;;10.40;99.90;;;;;;5046368;28;20047;-63
2021/09/29 05:14:12;;;;;;;13.00;7.95;;;10.40;99.90;;;;;;5049898;28;20068;-63
2021/09/29 05:16:39;;;;;;;15.95;8.45;;;10.40;99.90;;;;;;5051557;28;20508;-63
2021/09/29 05:19:05;;;;;;;17.90;9.30;;;10.40;99.90;;;;;;5054372;28;20041;-62
2021/09/29 05:21:33;;;;;;;15.35;8.75;;;10.30;99.90;;;;;;5045288;28;20397;-63
2021/09/29 05:23:58;;;;;;;15.88;8.48;;;10.30;99.90;;;;;;5051139;28;20041;-63
2021/09/29 05:26:24;;;;;;;13.73;9.35;;;10.30;99.90;;;;;;5054029;28;20044;-63
2021/09/29 05:28:51;;;;;;;17.42;9.25;;;10.30;99.90;;;;;;5053808;28;20145;-63
2021/09/29 05:31:17;;;;;;;12.63;8.43;;;10.30;99.90;;;;;;5012207;28;20041;-63
2021/09/29 05:33:43;;;;;;;15.50;8.60;;;10.30;99.90;;;;;;5035830;28;20041;-63
2021/09/29 05:36:09;;;;;;;14.05;8.70;;;10.30;99.90;;;;;;5053459;28;20112;-63
2021/09/29 05:38:35;;;;;;;15.43;9.13;;;10.30;99.90;;;;;;5056870;28;20467;-62
2021/09/29 05:41:00;;;;;;;12.52;8.77;;;10.30;99.90;;;;;;5051585;28;20041;-63
2021/09/29 05:43:26;;;;;;;16.05;9.15;;;10.30;99.90;;;;;;5052620;28;20113;-63
2021/09/29 05:45:52;;;;;;;16.70;9.30;;;10.30;99.90;;;;;;5018517;28;20445;-63
2021/09/29 05:48:18;;;;;;;12.48;9.02;;;10.30;99.90;;;;;;5035396;28;20045;-63
2021/09/29 05:50:44;;;;;;;13.55;9.30;;;10.30;99.90;;;;;;5053475;28;20052;-62
2021/09/29 05:53:09;;;;;;;12.50;8.57;;;10.40;99.90;;;;;;5033691;28;20041;-63
2021/09/29 05:55:35;;;;;;;13.65;9.15;;;10.30;99.90;;;;;;5035163;28;20045;-63
2021/09/29 05:58:01;;;;;;;12.32;8.55;;;10.40;99.90;;;;;;5053404;28;20045;-63
2021/09/29 06:00:26;;;;;;;12.98;9.02;;;10.40;99.90;;;;;;5053375;28;20040;-63
2021/09/29 06:02:52;;;;;;;14.70;9.35;;;10.50;99.90;;;;;;5051242;28;20422;-63
2021/09/29 06:05:18;;;;;;;16.45;9.15;;;10.50;99.90;;;;;;5053233;28;20395;-63
2021/09/29 06:07:43;;;;;;;13.52;9.35;;;10.60;99.90;;;;;;5053020;28;20049;-63
2021/09/29 06:10:09;;;;;;;17.20;9.15;;;10.60;99.90;;;;;;5053207;28;20049;-63
2021/09/29 06:12:36;;;;;;;13.60;8.90;;;10.70;99.90;;;;;;5033762;28;20488;-63
2021/09/29 06:15:02;;;;;;;13.63;9.25;;;10.70;99.90;;;;;;5036303;28;20498;-63
2021/09/29 06:17:37;;;;;;;11.68;8.23;;;10.70;99.90;;;;;;5051877;28;20040;-62
2021/09/29 06:20:04;;;;;;;13.05;8.15;;;10.90;99.90;;;;;;5033607;28;20849;-62
2021/09/29 06:22:30;;;;;;;11.27;8.55;;;11.00;99.90;;;;;;5046065;28;20036;-63
2021/09/29 06:24:56;;;;;;;13.93;8.63;;;11.00;99.90;;;;;;5052607;28;20404;-63
2021/09/29 06:27:21;;;;;;;12.18;8.90;;;11.10;99.90;;;;;;5032639;28;20539;-63
2021/09/29 06:29:47;;;;;;;12.63;8.43;;;11.10;99.90;;;;;;5051683;28;20079;-63
2021/09/29 06:32:12;;;;;;;17.42;8.50;;;11.20;99.90;;;;;;5051561;28;20072;-63
2021/09/29 06:34:38;;;;;;;17.08;8.23;;;11.30;99.90;;;;;;5051206;28;20047;-63
2021/09/29 06:37:04;;;;;;;19.05;9.85;;;11.40;99.90;;;;;;5059873;28;20055;-63
2021/09/29 06:39:30;;;;;;;11.60;8.98;;;11.40;99.90;;;;;;5050052;28;20036;-64
2021/09/29 06:41:56;;;;;;;13.30;9.45;;;11.40;99.90;;;;;;5065740;28;20542;-63
2021/09/29 06:44:21;;;;;;;13.68;8.13;;;11.50;99.90;;;;;;5037194;28;20064;-63
2021/09/29 06:46:47;;;;;;;15.25;9.13;;;11.90;99.90;;;;;;5023156;28;20036;-63
2021/09/29 06:49:13;;;;;;;19.80;8.00;;;12.30;99.90;;;;;;5033431;28;20487;-64
2021/09/29 06:51:38;;;;;;;15.15;7.88;;;12.50;99.90;;;;;;5046835;28;20032;-63
2021/09/29 06:54:05;;;;;;;10.75;7.78;;;12.70;99.90;;;;;;5052619;28;20124;-63
2021/09/29 06:56:30;;;;;;;10.98;7.05;;;13.40;99.90;;;;;;5036874;28;20151;-63
2021/09/29 06:58:56;;;;;;;11.48;7.32;;;14.10;99.90;;;;;;5066549;28;20067;-63
2021/09/29 07:01:22;;;;;;;13.05;7.78;;;14.30;99.90;;;;;;5053622;28;20390;-64
2021/09/29 07:03:49;;;;;;;14.50;7.50;;;14.20;99.90;;;;;;5050244;28;20558;-63
2021/09/29 07:06:16;;;;;;;8.55;7.15;;;14.00;99.90;;;;;;5047947;28;20060;-63
2021/09/29 07:08:41;;;;;;;10.10;6.38;;;13.80;99.90;;;;;;5056722;28;20037;-63
2021/09/29 07:11:07;;;;;;;10.52;6.85;;;13.60;99.90;;;;;;5043540;28;20052;-63
2021/09/29 07:13:33;;;;;;;11.05;7.30;;;13.40;99.90;;;;;;5033999;28;20045;-63
2021/09/29 07:15:59;;;;;;;13.40;7.07;;;13.30;99.90;;;;;;5037276;28;20072;-63
2021/09/29 07:18:29;;;;;;;12.35;7.68;;;13.10;99.90;;;;;;5053703;28;20067;-63
2021/09/29 07:20:55;;;;;;;8.95;6.80;;;13.10;99.90;;;;;;5053874;28;20064;-63
2021/09/29 07:23:20;;;;;;;13.50;7.75;;;13.00;99.90;;;;;;5050585;28;20462;-63
2021/09/29 07:25:46;;;;;;;10.68;7.32;;;12.90;99.90;;;;;;5051483;28;20047;-63
2021/09/29 07:28:11;;;;;;;10.10;6.90;;;12.90;99.90;;;;;;5022780;28;20042;-63
2021/09/29 07:30:40;;;;;;;18.45;7.95;;;12.80;99.90;;;;;;5034162;28;20041;-64
2021/09/29 07:33:07;;;;;;;11.65;7.15;;;12.80;99.90;;;;;;5034897;28;20049;-64
2021/09/29 07:35:33;;;;;;;12.05;7.15;;;12.70;99.90;;;;;;5062451;28;20200;-63
2021/09/29 07:38:00;;;;;;;9.70;6.45;;;12.70;99.90;;;;;;5028753;28;20033;-63
2021/09/29 07:40:26;;;;;;;10.75;6.30;;;12.70;99.90;;;;;;5048495;28;20032;-63
2021/09/29 07:42:52;;;;;;;8.48;6.38;;;12.80;99.90;;;;;;5049881;28;20133;-63
2021/09/29 07:45:19;;;;;;;11.02;6.15;;;12.70;99.90;;;;;;5045164;28;20047;-63
2021/09/29 07:47:45;;;;;;;12.20;6.18;;;12.70;99.90;;;;;;5047999;28;20048;-63
2021/09/29 07:50:12;;;;;;;10.98;6.60;;;12.70;99.90;;;;;;5050293;28;20037;-64
2021/09/29 07:52:38;;;;;;;10.00;6.53;;;12.80;99.90;;;;;;5051088;28;20072;-63
2021/09/29 07:55:05;;;;;;;10.68;6.50;;;12.80;99.90;;;;;;5033370;28;20398;-63
2021/09/29 07:57:31;;;;;;;9.15;6.28;;;12.80;99.90;;;;;;5031447;28;20049;-63
2021/09/29 07:59:56;;;;;;;8.57;5.82;;;12.80;99.90;;;;;;5050276;28;20074;-63
2021/09/29 08:02:22;;;;;;;9.68;6.05;;;12.90;99.90;;;;;;5047868;28;20429;-63
2021/09/29 08:04:47;;;;;;;7.43;5.72;;;12.90;99.90;;;;;;5030151;28;20437;-64
2021/09/29 08:07:14;;;;;;;9.88;6.57;;;12.90;99.90;;;;;;5054835;28;20074;-64
2021/09/29 08:09:40;;;;;;;10.38;6.35;;;12.90;99.90;;;;;;5064211;28;20029;-64
2021/09/29 08:12:06;;;;;;;8.43;6.60;;;12.90;99.90;;;;;;5047724;28;20044;-64
2021/09/29 08:14:32;;;;;;;9.93;6.38;;;12.80;99.90;;;;;;5062881;28;20043;-65
2021/09/29 08:16:58;;;;;;;14.73;6.90;;;12.80;99.90;;;;;;5048301;28;20041;-65
2021/09/29 08:19:24;;;;;;;7.93;6.25;;;12.90;99.90;;;;;;5031735;28;20045;-64
2021/09/29 08:21:50;;;;;;;10.25;6.70;;;12.80;99.90;;;;;;5045050;28;20037;-64
2021/09/29 08:24:22;;;;;;;9.35;6.32;;;12.80;99.90;;;;;;5056820;28;20033;-64
2021/09/29 08:26:59;;;;;;;10.57;6.95;;;12.80;99.90;;;;;;5064384;28;20037;-64
2021/09/29 08:32:17;;;;;;;10.27;6.78;;;12.90;99.90;;;;;;5046493;28;20045;-64
2021/09/29 08:34:48;;;;;;;11.15;7.10;;;12.90;99.90;;;;;;5031437;28;20044;-65
2021/09/29 08:39:54;;;;;;;8.63;7.10;;;12.80;99.90;;;;;;5047759;28;20498;-65
2021/09/29 08:42:41;;;;;;;10.00;7.00;;;12.90;99.90;;;;;;5046033;28;20123;-65
2021/09/29 08:45:19;;;;;;;10.20;6.97;;;12.90;99.90;;;;;;5031406;28;20040;-64
2021/09/29 08:53:37;;;;;;;12.02;6.82;;;13.00;99.90;;;;;;5029353;28;20510;-65
2021/09/29 09:16:04;;;;;;;9.88;6.40;;;13.30;99.90;;;;;;5046152;28;20049;-65
2021/09/29 09:18:30;;;;;;;11.02;6.55;;;13.40;99.90;;;;;;5030379;28;20068;-65
2021/09/29 09:21:05;;;;;;;11.55;6.32;;;13.40;99.90;;;;;;5049165;28;20037;-64
2021/09/29 09:23:38;;;;;;;8.88;6.25;;;13.40;99.90;;;;;;5049133;28;20045;-65
2021/09/29 09:26:18;;;;;;;10.85;7.30;;;13.50;99.90;;;;;;5030152;28;20231;-64
2021/09/29 09:28:45;;;;;;;10.75;6.30;;;13.50;99.90;;;;;;5026880;28;20037;-64
2021/09/29 09:31:19;;;;;;;9.23;6.70;;;13.50;99.90;;;;;;5047953;28;20033;-65
2021/09/29 09:33:56;;;;;;;9.77;6.35;;;13.60;99.90;;;;;;5031111;28;20432;-65
2021/09/29 09:36:35;;;;;;;11.77;6.78;;;13.60;99.90;;;;;;5030938;28;20122;-65
2021/09/29 09:39:23;;;;;;;12.40;6.88;;;13.60;99.90;;;;;;5022089;28;20076;-65
2021/09/29 09:41:51;;;;;;;9.27;6.32;;;13.60;99.90;;;;;;5048085;28;20500;-65
2021/09/29 09:44:27;;;;;;;8.60;6.05;;;13.50;99.90;;;;;;5058843;28;20037;-65
2021/09/29 09:46:57;;;;;;;9.70;7.35;;;13.50;99.90;;;;;;5045618;28;20474;-65
2021/09/29 09:49:22;;;;;;;8.85;6.82;;;13.50;99.90;;;;;;5031323;28;20650;-65
2021/09/29 09:51:51;;;;;;;10.40;8.25;;;13.50;99.90;;;;;;5055588;28;20128;-65
2021/09/29 09:54:18;;;;;;;8.07;7.28;;;13.40;99.90;;;;;;5039892;28;20377;-65
2021/09/29 09:56:52;;;;;;;9.55;7.35;;;13.50;99.90;;;;;;5048367;28;20376;-65
2021/09/29 09:59:18;;;;;;;12.07;8.32;;;13.40;99.90;;;;;;5049003;28;20033;-65
2021/09/29 10:01:46;;;;;;;12.07;7.80;;;13.40;99.90;;;;;;5049555;28;20079;-65
2021/09/29 10:04:13;;;;;;;8.27;7.25;;;13.30;99.90;;;;;;5052926;28;20041;-65
2021/09/29 10:06:40;;;;;;;8.13;6.72;;;13.30;99.90;;;;;;5053262;28;20561;-65
2021/09/29 10:09:24;;;;;;;7.60;5.90;;;13.30;99.90;;;;;;5051934;28;20111;-64
2021/09/29 10:14:33;;;;;;;7.70;5.95;;;13.40;99.90;;;;;;5051078;28;20072;-64
2021/09/29 10:28:13;;;;;;;6.75;4.70;;;13.50;99.90;;;;;;5056282;28;20451;-64
2021/09/29 10:33:08;;;;;;;5.40;4.38;;;13.40;99.90;;;;;;5032161;28;20506;-65
2021/09/29 10:35:45;;;;;;;5.63;5.07;;;13.40;99.90;;;;;;5055741;28;20040;-64
2021/09/29 10:43:29;;;;;;;4.43;4.03;;;13.20;99.90;;;;;;5033745;28;20067;-64
2021/09/29 10:46:17;;;;;;;4.30;3.90;;;13.30;99.90;;;;;;5023920;28;20831;-65
2021/09/29 10:49:04;;;;;;;4.53;3.60;;;13.30;99.90;;;;;;5048275;28;20036;-65
2021/09/29 11:05:40;;;;;;;3.42;2.67;;;13.30;99.90;;;;;;5046029;28;20049;-67
2021/09/29 11:29:46;;;;;;;4.97;4.13;;;13.30;99.90;;;;;;5021310;28;20051;-67
2021/09/29 11:32:34;;;;;;;5.32;4.75;;;13.40;99.90;;;;;;5043325;28;20045;-67
2021/09/29 11:35:14;;;;;;;6.28;5.10;;;13.30;99.90;;;;;;5028213;28;20075;-68
2021/09/29 11:38:04;;;;;;;8.85;4.95;;;13.30;99.90;;;;;;5023304;28;20029;-67
2021/09/29 11:49:19;;;;;;;4.22;3.83;;;13.20;99.90;;;;;;5062878;28;20385;-67
2021/09/29 12:11:25;;;;;;;1.85;1.40;;;13.30;99.90;;;;;;5049421;28;20048;-68
2021/09/29 12:13:59;;;;;;;3.63;2.08;;;13.30;99.90;;;;;;5056804;28;20459;-68
2021/09/29 12:16:26;;;;;;;2.65;1.90;;;13.30;99.90;;;;;;5047506;28;20051;-67
2021/09/29 12:19:04;;;;;;;2.70;1.60;;;13.30;99.90;;;;;;5019609;28;20037;-68
2021/09/29 12:21:38;;;;;;;2.35;1.58;;;13.20;99.90;;;;;;5032183;28;20061;-68
2021/09/29 12:24:07;;;;;;;2.17;1.33;;;13.20;99.90;;;;;;5027012;28;20049;-67
2021/09/29 12:26:42;;;;;;;2.58;1.02;;;13.10;99.90;;;;;;5039165;28;20087;-67
2021/09/29 12:29:50;;;;;;;1.75;0.90;;;13.20;99.90;;;;;;5028560;28;20119;-68
2021/09/29 12:32:28;;;;;;;2.17;0.60;;;13.20;99.90;;;;;;5043472;28;20517;-68
2021/09/29 12:35:09;;;;;;;;;;;13.10;99.90;;;;;;5048349;28;20099;-68
2021/09/29 12:37:36;;;;;;;0.98;0.30;;;13.00;99.90;;;;;;5055387;28;19920;-68
2021/09/29 12:40:02;;;;;;;1.70;0.30;;;13.00;99.90;;;;;;5024086;28;20041;-68
2021/09/29 12:42:34;;;;;;;1.40;0.50;;;12.90;99.90;;;;;;5031726;28;20038;-68
2021/09/29 12:44:59;;;;;;;1.30;0.40;;;12.80;99.90;;;;;;5023478;28;20363;-68
2021/09/29 12:49:57;;;;;;;1.60;0.50;;;12.70;99.90;;;;;;5039574;28;20052;-68
2021/09/29 12:52:33;;;;;;;0.40;0.35;;;12.70;99.90;;;;;;5028598;28;20068;-68
2021/09/29 12:54:59;;;;;;;0.73;0.30;;;12.70;99.90;;;;;;5028280;28;20036;-68
2021/09/29 12:57:27;;;;;;;1.00;0.40;;;12.70;99.90;;;;;;5024203;28;20096;-68
2021/09/29 12:59:54;;;;;;;1.95;0.47;;;12.70;99.90;;;;;;5031187;28;20080;-68
2021/09/29 13:02:19;;;;;;;1.75;0.50;;;12.60;99.90;;;;;;5024829;28;20389;-68
2021/09/29 13:04:45;;;;;;;1.85;0.50;;;12.50;99.90;;;;;;5046601;28;20032;-68
2021/09/29 13:07:11;;;;;;;2.03;0.30;;;12.50;99.90;;;;;;5021876;28;20049;-68
2021/09/29 13:09:36;;;;;;;2.75;0.50;;;12.50;99.90;;;;;;5022974;28;20436;-68
2021/09/29 13:12:02;;;;;;;1.38;0.38;;;12.50;99.90;;;;;;5020684;28;20053;-68
2021/09/29 13:14:28;;;;;;;1.10;0.40;;;12.50;99.90;;;;;;5022764;28;20036;-68
2021/09/29 13:16:53;;;;;;;0.80;0.30;;;12.50;99.90;;;;;;5040345;28;20051;-68
2021/09/29 13:19:33;;;;;;;0.75;0.32;;;12.50;99.90;;;;;;5025351;28;20464;-68
2021/09/29 13:22:05;;;;;;;2.50;0.73;;;12.50;99.90;;;;;;5026693;28;20068;-68
2021/09/29 13:35:13;;;;;;;1.70;0.50;;;12.50;99.90;;;;;;5039889;28;20037;-68
2021/09/29 13:37:54;;;;;;;2.63;0.65;;;12.40;99.90;;;;;;5032127;28;20534;-68
2021/09/29 13:40:19;;;;;;;2.45;0.57;;;12.40;99.90;;;;;;5043320;28;20120;-68
2021/09/29 13:42:45;;;;;;;2.13;0.50;;;12.40;99.90;;;;;;5016797;28;20127;-68
2021/09/29 13:45:11;;;;;;;2.83;0.98;;;12.40;99.90;;;;;;5046037;28;20036;-68
2021/09/29 13:47:37;;;;;;;3.55;0.57;;;12.40;99.90;;;;;;5051402;28;20036;-67
2021/09/29 13:50:04;;;;;;;2.95;0.70;;;12.40;99.90;;;;;;5035034;28;20056;-67
2021/09/29 13:52:30;;;;;;;3.13;0.80;;;12.40;99.90;;;;;;5042462;28;20045;-67
2021/09/29 13:55:02;;;;;;;1.58;0.55;;;12.40;99.90;;;;;;5033842;28;20050;-67
2021/09/29 13:57:33;;;;;;;2.28;0.50;;;12.40;99.90;;;;;;5039085;28;20045;-67
2021/09/29 14:00:11;;;;;;;2.20;0.70;;;12.30;99.90;;;;;;5046804;28;20055;-67
2021/09/29 14:33:05;;;;;;;1.00;0.60;;;12.20;99.90;;;;;;5031763;28;20537;-67
2021/09/29 14:35:27;;;;;;;0.98;0.52;;;12.20;99.90;;;;;;5029226;28;20489;-67
2021/09/29 14:37:53;;;;;;;1.88;1.45;;;12.20;99.90;;;;;;5034140;28;20175;-67
2021/09/29 14:40:20;;;;;;;2.30;0.80;;;12.10;99.90;;;;;;5052573;28;20033;-67
2021/09/29 14:42:46;;;;;;;1.15;0.80;;;12.10;99.90;;;;;;5041539;28;20048;-67
2021/09/29 14:45:12;;;;;;;1.42;0.50;;;12.00;99.90;;;;;;5030629;28;20048;-67
2021/09/29 14:47:37;;;;;;;3.15;0.80;;;12.00;99.90;;;;;;5058167;28;20044;-67
2021/09/29 14:50:03;;;;;;;0.93;0.60;;;11.90;99.90;;;;;;5040585;28;20470;-67
2021/09/29 14:52:29;;;;;;;2.05;1.38;;;11.90;99.90;;;;;;5018782;28;20046;-68
2021/09/29 14:54:55;;;;;;;8.43;5.45;;;11.90;99.90;;;;;;5041152;28;20079;-67
2021/09/29 14:57:20;;;;;;;4.65;3.35;;;12.00;99.90;;;;;;5018909;28;20600;-67
2021/09/29 14:59:46;;;;;;;2.10;1.58;;;12.00;99.90;;;;;;5029352;28;20485;-67
2021/09/29 15:02:16;;;;;;;2.40;1.40;;;12.10;99.90;;;;;;5043850;28;20036;-67
2021/09/29 15:04:43;;;;;;;1.25;0.90;;;12.10;99.90;;;;;;5046967;28;20393;-67
2021/09/29 15:07:09;;;;;;;2.65;1.20;;;12.00;99.90;;;;;;5054104;28;20057;-68
2021/09/29 15:09:35;;;;;;;2.00;1.20;;;12.10;99.90;;;;;;5030152;28;20056;-67
2021/09/29 15:12:01;;;;;;;1.67;0.90;;;12.00;99.90;;;;;;5012028;28;20241;-67
2021/09/29 15:14:33;;;;;;;1.52;0.85;;;12.00;99.90;;;;;;5053425;28;20028;-66
2021/09/29 15:17:06;;;;;;;1.25;1.00;;;12.10;99.90;;;;;;5047990;28;20374;-66
2021/09/29 15:19:41;;;;;;;1.05;0.50;;;12.10;99.90;;;;;;5034034;28;20646;-66
2021/09/29 15:30:49;;;;;;;1.58;0.55;;;12.30;99.90;;;;;;5041896;28;20047;-66
2021/09/29 15:51:52;;;;;;;2.58;1.45;;;12.10;99.90;;;;;;5051147;28;20083;-66